Time;durP1;ratioP1;P1;durP2;ratioP2;P2;SDS_P1;SDS_P2;PMS_P1;PMS_P2;Temp;Humidity;BMP_temperature;BMP_pressure;BME280_temperature;BME280_humidity;BME280_pressure;Samples;Min_cycle;Max_cycle;Signal;HPM_P1;HPM_P2
2021/09/24 00:01:50;;;;;;;6.30;4.28;;;17.10;60.70;;;;;;5053451;28;20084;-66
2021/09/24 00:04:16;;;;;;;6.45;4.78;;;17.00;60.80;;;;;;5053546;28;20061;-65
2021/09/24 00:06:44;;;;;;;5.03;4.28;;;17.00;60.60;;;;;;5053573;28;20029;-65
2021/09/24 00:09:10;;;;;;;7.43;5.05;;;17.00;60.70;;;;;;5052007;28;20375;-65
2021/09/24 00:11:37;;;;;;;8.98;5.10;;;17.00;60.60;;;;;;5053611;28;20025;-65
2021/09/24 00:14:05;;;;;;;7.50;5.00;;;17.00;60.70;;;;;;5052671;28;20428;-65
2021/09/24 00:16:32;;;;;;;11.25;4.65;;;16.90;60.90;;;;;;5052668;28;20036;-65
2021/09/24 00:18:58;;;;;;;5.97;4.45;;;16.90;60.80;;;;;;5060121;28;20028;-65
2021/09/24 00:21:24;;;;;;;8.25;4.18;;;16.90;60.70;;;;;;5073283;28;20059;-66
2021/09/24 00:23:50;;;;;;;6.85;4.35;;;16.90;60.70;;;;;;5073253;28;20048;-66
2021/09/24 00:26:16;;;;;;;5.70;4.50;;;16.80;60.40;;;;;;5066438;28;20479;-65
2021/09/24 00:28:42;;;;;;;7.55;4.80;;;16.80;60.50;;;;;;5053042;28;20494;-65
2021/09/24 00:31:09;;;;;;;6.57;4.80;;;16.80;60.50;;;;;;5052987;28;20064;-65
2021/09/24 00:33:34;;;;;;;8.43;5.15;;;16.80;60.90;;;;;;5053062;28;20025;-66
2021/09/24 00:36:01;;;;;;;5.75;4.57;;;16.70;60.90;;;;;;5053012;28;20024;-65
2021/09/24 00:38:27;;;;;;;9.00;4.78;;;16.70;61.00;;;;;;5052883;28;20029;-65
2021/09/24 00:40:53;;;;;;;8.35;4.50;;;16.70;60.90;;;;;;5052858;28;20501;-66
2021/09/24 00:43:19;;;;;;;6.00;4.60;;;16.70;60.90;;;;;;5052777;28;20033;-66
2021/09/24 00:45:46;;;;;;;6.30;4.60;;;16.70;61.10;;;;;;5052747;28;20025;-66
2021/09/24 00:48:11;;;;;;;6.22;4.20;;;16.70;61.00;;;;;;5052739;28;20033;-65
2021/09/24 00:50:37;;;;;;;7.57;4.93;;;16.70;61.10;;;;;;5052607;28;20035;-65
2021/09/24 00:53:04;;;;;;;5.22;4.32;;;16.70;61.10;;;;;;5052474;28;20471;-65
2021/09/24 00:55:31;;;;;;;6.53;4.47;;;16.60;61.00;;;;;;5052703;28;20052;-65
2021/09/24 00:57:57;;;;;;;6.38;4.38;;;16.60;61.00;;;;;;5052557;28;20032;-65
2021/09/24 01:00:23;;;;;;;7.35;4.32;;;16.60;61.10;;;;;;5061363;28;20039;-65
2021/09/24 01:02:49;;;;;;;5.85;4.50;;;16.60;61.10;;;;;;5070948;28;20048;-65
2021/09/24 01:05:15;;;;;;;6.95;4.13;;;16.60;61.10;;;;;;5072412;28;20024;-64
2021/09/24 01:07:44;;;;;;;5.95;4.60;;;16.50;61.10;;;;;;5064242;28;20028;-64
2021/09/24 01:10:12;;;;;;;4.50;3.97;;;16.50;61.30;;;;;;5052247;28;20036;-64
2021/09/24 01:12:39;;;;;;;7.00;4.43;;;16.50;61.10;;;;;;5052112;28;20363;-65
2021/09/24 01:15:11;;;;;;;10.75;4.95;;;16.50;61.30;;;;;;5052292;28;20351;-65
2021/09/24 01:17:37;;;;;;;8.68;4.65;;;16.40;61.50;;;;;;5052280;28;20028;-64
2021/09/24 01:20:05;;;;;;;17.80;6.40;;;16.40;61.50;;;;;;5052178;28;20364;-66
2021/09/24 01:22:31;;;;;;;5.15;4.38;;;16.40;61.80;;;;;;5052175;28;20025;-65
2021/09/24 01:24:57;;;;;;;6.68;4.78;;;16.40;61.80;;;;;;5052116;28;20060;-64
2021/09/24 01:27:23;;;;;;;6.45;4.78;;;16.30;61.90;;;;;;5065278;28;20457;-65
2021/09/24 01:29:50;;;;;;;6.32;4.47;;;16.30;62.10;;;;;;5070678;28;20389;-64
2021/09/24 01:32:16;;;;;;;5.78;4.05;;;16.30;62.30;;;;;;5072104;28;20027;-65
2021/09/24 01:34:42;;;;;;;6.68;5.07;;;16.30;62.00;;;;;;5053966;28;20020;-65
2021/09/24 01:37:08;;;;;;;9.77;4.20;;;16.30;62.20;;;;;;5059445;28;20377;-65
2021/09/24 01:39:34;;;;;;;7.25;4.10;;;16.30;62.20;;;;;;5051681;28;20036;-65
2021/09/24 01:42:00;;;;;;;9.00;5.07;;;16.20;62.20;;;;;;5050666;28;20482;-65
2021/09/24 01:44:26;;;;;;;8.18;4.50;;;16.20;62.20;;;;;;5051999;28;20021;-65
2021/09/24 01:46:54;;;;;;;7.63;4.68;;;16.20;62.30;;;;;;5061020;28;20029;-65
2021/09/24 01:49:20;;;;;;;6.15;4.30;;;16.20;62.30;;;;;;5071834;28;20028;-65
2021/09/24 01:51:46;;;;;;;8.25;4.60;;;16.20;62.50;;;;;;5071921;28;20043;-65
2021/09/24 01:54:13;;;;;;;7.45;3.90;;;16.20;62.60;;;;;;5071917;28;20024;-64
2021/09/24 01:56:39;;;;;;;6.35;4.20;;;16.20;62.50;;;;;;5073458;28;20021;-64
2021/09/24 01:59:05;;;;;;;5.93;4.78;;;16.10;62.30;;;;;;5075813;28;20046;-65
2021/09/24 02:01:31;;;;;;;7.18;4.47;;;16.10;62.50;;;;;;5075674;28;20035;-65
2021/09/24 02:03:57;;;;;;;4.70;3.97;;;16.10;62.40;;;;;;5075755;28;20103;-65
2021/09/24 02:06:22;;;;;;;5.35;3.92;;;16.10;62.40;;;;;;5075796;28;20032;-65
2021/09/24 02:08:48;;;;;;;5.47;3.78;;;16.10;62.30;;;;;;5061876;28;20079;-64
2021/09/24 02:11:14;;;;;;;5.57;4.20;;;16.00;62.20;;;;;;5057337;28;20150;-65
2021/09/24 02:13:41;;;;;;;6.47;4.85;;;16.00;62.50;;;;;;5055859;28;20017;-65
2021/09/24 02:16:09;;;;;;;6.35;4.57;;;16.00;62.70;;;;;;5055029;28;20032;-65
2021/09/24 02:18:35;;;;;;;7.88;4.40;;;15.90;62.60;;;;;;5055526;28;20021;-65
2021/09/24 02:21:01;;;;;;;6.28;4.45;;;15.90;62.70;;;;;;5055662;28;20028;-65
2021/09/24 02:23:26;;;;;;;5.68;4.68;;;15.90;62.80;;;;;;5055437;28;20033;-65
2021/09/24 02:25:52;;;;;;;13.30;5.63;;;15.90;62.90;;;;;;5055791;28;20044;-64
2021/09/24 02:28:18;;;;;;;8.52;5.25;;;15.90;63.20;;;;;;5055203;28;20048;-65
2021/09/24 02:30:44;;;;;;;7.88;4.75;;;15.90;63.40;;;;;;5055283;28;20030;-64
2021/09/24 02:33:10;;;;;;;5.18;4.22;;;15.90;63.40;;;;;;5055175;28;20048;-65
2021/09/24 02:35:36;;;;;;;7.53;4.60;;;15.90;63.30;;;;;;5055296;28;20140;-66
2021/09/24 02:38:02;;;;;;;5.85;4.45;;;15.90;63.20;;;;;;5055604;28;20025;-65
2021/09/24 02:40:28;;;;;;;9.18;5.78;;;15.90;63.10;;;;;;5055049;28;20040;-66
2021/09/24 02:42:54;;;;;;;7.30;5.07;;;15.90;63.50;;;;;;5055153;28;20056;-65
2021/09/24 02:45:19;;;;;;;6.13;4.57;;;15.90;63.50;;;;;;5055055;28;20041;-66
2021/09/24 02:47:45;;;;;;;7.22;5.38;;;15.90;63.40;;;;;;5055061;28;20079;-67
2021/09/24 02:50:11;;;;;;;7.05;4.80;;;15.90;63.50;;;;;;5053680;28;20082;-66
2021/09/24 02:52:37;;;;;;;10.75;4.57;;;15.90;63.50;;;;;;5055561;28;20375;-66
2021/09/24 02:55:04;;;;;;;5.85;4.43;;;15.90;63.40;;;;;;5055102;28;20013;-66
2021/09/24 02:57:30;;;;;;;6.70;4.88;;;15.80;63.40;;;;;;5054891;28;20477;-66
2021/09/24 02:59:56;;;;;;;8.75;5.03;;;15.80;63.40;;;;;;5054792;28;20437;-65
2021/09/24 03:02:22;;;;;;;8.27;5.45;;;15.80;63.60;;;;;;5063735;28;20087;-66
2021/09/24 03:04:48;;;;;;;5.88;4.53;;;15.80;63.80;;;;;;5067986;28;20533;-66
2021/09/24 03:07:13;;;;;;;6.10;4.85;;;15.80;63.90;;;;;;5054511;28;20046;-66
2021/09/24 03:09:39;;;;;;;11.23;6.05;;;15.80;63.70;;;;;;5054414;28;20029;-66
2021/09/24 03:12:06;;;;;;;11.93;5.32;;;15.80;64.10;;;;;;5055077;28;20021;-66
2021/09/24 03:14:32;;;;;;;6.72;5.05;;;15.80;64.40;;;;;;5054479;28;20070;-65
2021/09/24 03:16:58;;;;;;;7.35;4.72;;;15.80;64.20;;;;;;5054435;28;20025;-65
2021/09/24 03:19:24;;;;;;;7.85;5.50;;;15.80;63.90;;;;;;5053950;28;20174;-64
2021/09/24 03:21:50;;;;;;;7.68;5.18;;;15.80;63.90;;;;;;5054352;28;20530;-66
2021/09/24 03:24:17;;;;;;;10.15;5.70;;;15.80;63.80;;;;;;5054285;28;20056;-65
2021/09/24 03:26:44;;;;;;;6.75;5.13;;;15.90;63.90;;;;;;5054715;28;20036;-65
2021/09/24 03:29:11;;;;;;;7.10;5.47;;;15.80;63.80;;;;;;5054243;28;20119;-65
2021/09/24 03:31:38;;;;;;;7.35;5.78;;;15.90;64.00;;;;;;5068030;28;20028;-65
2021/09/24 03:34:05;;;;;;;9.95;6.28;;;15.90;64.00;;;;;;5074090;28;20143;-66
2021/09/24 03:36:31;;;;;;;6.00;4.80;;;15.90;64.10;;;;;;5073959;28;20478;-65
2021/09/24 03:38:57;;;;;;;7.28;5.85;;;15.90;64.00;;;;;;5073906;28;20037;-65
2021/09/24 03:41:23;;;;;;;7.05;5.50;;;16.00;64.10;;;;;;5073862;28;20027;-65
2021/09/24 03:43:49;;;;;;;8.40;5.90;;;16.00;64.10;;;;;;5064217;28;20017;-65
2021/09/24 03:46:15;;;;;;;8.70;5.60;;;16.00;63.80;;;;;;5054506;28;20106;-66
2021/09/24 03:48:40;;;;;;;5.68;4.85;;;16.00;63.70;;;;;;5053969;28;20529;-65
2021/09/24 03:51:06;;;;;;;6.57;4.80;;;16.10;63.70;;;;;;5054263;28;20025;-65
2021/09/24 03:53:32;;;;;;;10.00;6.03;;;16.10;63.70;;;;;;5053698;28;20132;-66
2021/09/24 03:55:58;;;;;;;8.68;5.95;;;16.10;63.70;;;;;;5053597;28;20021;-65
2021/09/24 03:58:24;;;;;;;7.85;5.63;;;16.10;63.70;;;;;;5053600;28;20039;-66
2021/09/24 04:00:51;;;;;;;10.40;6.18;;;16.10;63.50;;;;;;5053597;28;20078;-65
2021/09/24 04:03:17;;;;;;;7.90;6.00;;;16.20;63.50;;;;;;5053425;28;20045;-65
2021/09/24 04:05:44;;;;;;;7.55;5.22;;;16.20;63.40;;;;;;5052137;28;20052;-66
2021/09/24 04:08:10;;;;;;;8.30;6.28;;;16.30;63.30;;;;;;5054310;28;20078;-65
2021/09/24 04:10:36;;;;;;;8.98;6.30;;;16.30;63.20;;;;;;5053206;28;20079;-65
2021/09/24 04:13:02;;;;;;;11.32;6.90;;;16.30;63.20;;;;;;5053355;28;20049;-65
2021/09/24 04:15:28;;;;;;;10.68;6.70;;;16.30;63.10;;;;;;5053243;28;20029;-65
2021/09/24 04:17:53;;;;;;;10.52;5.85;;;16.30;63.00;;;;;;5053057;28;20546;-64
2021/09/24 04:20:19;;;;;;;8.70;5.32;;;16.40;63.00;;;;;;5052904;28;20078;-64
2021/09/24 04:22:45;;;;;;;9.93;6.25;;;16.50;62.90;;;;;;5053084;28;20029;-65
2021/09/24 04:25:11;;;;;;;11.10;6.00;;;16.50;63.50;;;;;;5053071;28;20049;-65
2021/09/24 04:27:37;;;;;;;8.98;5.90;;;16.60;62.70;;;;;;5054017;28;20490;-65
2021/09/24 04:30:05;;;;;;;9.93;6.13;;;16.60;62.60;;;;;;5052437;28;20111;-65
2021/09/24 04:32:31;;;;;;;7.05;5.68;;;16.70;62.60;;;;;;5070713;28;20024;-64
2021/09/24 04:34:56;;;;;;;9.13;5.75;;;16.70;62.40;;;;;;5052760;28;20031;-65
2021/09/24 04:37:22;;;;;;;13.20;6.70;;;16.70;62.20;;;;;;5052838;28;20100;-65
2021/09/24 04:39:48;;;;;;;9.40;6.03;;;16.70;62.10;;;;;;5052822;28;20386;-65
2021/09/24 04:42:14;;;;;;;24.20;5.57;;;16.70;62.20;;;;;;5052733;28;20487;-65
2021/09/24 04:44:40;;;;;;;7.88;5.65;;;16.70;62.00;;;;;;5052649;28;20420;-64
2021/09/24 04:47:06;;;;;;;11.32;7.00;;;16.70;62.10;;;;;;5052605;28;20025;-64
2021/09/24 04:49:32;;;;;;;8.00;5.93;;;16.70;62.00;;;;;;5052399;28;20035;-64
2021/09/24 04:51:58;;;;;;;12.27;5.38;;;16.70;62.00;;;;;;5052564;28;20029;-65
2021/09/24 04:54:24;;;;;;;9.27;5.38;;;16.70;61.90;;;;;;5052757;28;20100;-64
2021/09/24 04:56:50;;;;;;;8.93;5.60;;;16.80;62.00;;;;;;5053026;28;20075;-64
2021/09/24 04:59:16;;;;;;;19.00;5.80;;;16.70;61.90;;;;;;5052361;28;20538;-64
2021/09/24 05:01:41;;;;;;;13.15;6.35;;;16.70;61.90;;;;;;5052169;28;20048;-66
2021/09/24 05:04:07;;;;;;;9.07;6.10;;;16.70;62.00;;;;;;5052228;28;20114;-66
2021/09/24 05:06:33;;;;;;;7.40;5.35;;;16.70;62.00;;;;;;5052212;28;20033;-65
2021/09/24 05:08:59;;;;;;;7.18;5.07;;;16.70;62.00;;;;;;5051897;28;20485;-66
2021/09/24 05:11:24;;;;;;;8.45;5.82;;;16.70;62.00;;;;;;5052199;28;20043;-65
2021/09/24 05:13:50;;;;;;;8.60;5.63;;;16.70;62.00;;;;;;5052209;28;20100;-65
2021/09/24 05:16:16;;;;;;;8.43;6.03;;;16.70;62.80;;;;;;5055989;28;20101;-65
2021/09/24 05:18:43;;;;;;;9.57;5.38;;;16.70;62.00;;;;;;5054723;28;20029;-65
2021/09/24 05:21:09;;;;;;;12.95;5.30;;;16.70;62.10;;;;;;5051827;28;20028;-65
2021/09/24 05:23:35;;;;;;;12.93;6.25;;;16.70;62.00;;;;;;5050673;28;20036;-66
2021/09/24 05:26:01;;;;;;;6.30;4.97;;;16.60;62.00;;;;;;5051927;28;20025;-65
2021/09/24 05:28:27;;;;;;;6.07;5.25;;;16.60;62.00;;;;;;5051765;28;20098;-65
2021/09/24 05:30:53;;;;;;;8.55;5.40;;;16.60;62.00;;;;;;5051073;28;20106;-65
2021/09/24 05:33:19;;;;;;;13.00;5.80;;;16.60;62.00;;;;;;5051876;28;20078;-66
2021/09/24 05:35:45;;;;;;;8.48;5.47;;;16.60;62.00;;;;;;5051832;28;20029;-66
2021/09/24 05:38:10;;;;;;;8.20;4.85;;;16.60;62.20;;;;;;5051813;28;20024;-66
2021/09/24 05:40:36;;;;;;;6.93;5.47;;;16.60;62.10;;;;;;5051803;28;20031;-66
2021/09/24 05:43:02;;;;;;;8.27;6.20;;;16.70;62.20;;;;;;5052048;28;20021;-66
2021/09/24 05:45:28;;;;;;;9.52;6.15;;;16.70;62.10;;;;;;5059563;28;20311;-66
2021/09/24 05:47:55;;;;;;;7.05;5.32;;;16.80;62.10;;;;;;5072108;28;20420;-65
2021/09/24 05:50:21;;;;;;;8.02;6.05;;;16.80;62.10;;;;;;5070338;28;20363;-66
2021/09/24 05:52:49;;;;;;;12.20;6.22;;;16.80;62.00;;;;;;5064230;28;20025;-66
2021/09/24 05:55:18;;;;;;;7.22;4.53;;;16.90;62.00;;;;;;5058393;28;20017;-66
2021/09/24 05:57:44;;;;;;;10.80;6.30;;;16.90;61.90;;;;;;5071357;28;20458;-66
2021/09/24 06:00:15;;;;;;;7.95;5.53;;;17.00;61.80;;;;;;5061748;28;20115;-66
2021/09/24 06:02:43;;;;;;;8.10;5.38;;;17.10;61.80;;;;;;5063595;28;20049;-66
2021/09/24 06:05:09;;;;;;;9.15;5.50;;;17.20;61.60;;;;;;5066976;28;20032;-66
2021/09/24 06:07:35;;;;;;;8.85;5.97;;;17.30;61.70;;;;;;5065648;28;20478;-65
2021/09/24 06:10:03;;;;;;;10.73;4.93;;;17.40;61.50;;;;;;5069788;28;20090;-65
2021/09/24 06:12:29;;;;;;;7.43;5.22;;;17.50;61.40;;;;;;5051478;28;20100;-65
2021/09/24 06:14:57;;;;;;;7.53;4.90;;;17.50;61.00;;;;;;5051242;28;20574;-65
2021/09/24 06:17:24;;;;;;;6.15;4.90;;;17.60;60.90;;;;;;5049975;28;20029;-65
2021/09/24 06:19:50;;;;;;;6.80;4.93;;;17.60;60.40;;;;;;5051561;28;20033;-65
2021/09/24 06:22:16;;;;;;;9.50;5.72;;;17.70;60.20;;;;;;5053564;28;20032;-65
2021/09/24 06:24:45;;;;;;;7.10;4.95;;;17.80;60.00;;;;;;5056514;28;20025;-65
2021/09/24 06:27:14;;;;;;;10.57;5.85;;;17.80;60.00;;;;;;5067618;28;20056;-66
2021/09/24 06:29:58;;;;;;;8.07;4.93;;;17.90;59.70;;;;;;5061489;28;20482;-67
2021/09/24 06:32:25;;;;;;;9.80;6.25;;;18.00;59.70;;;;;;5059587;28;20025;-65
2021/09/24 06:34:51;;;;;;;7.78;5.75;;;18.10;59.30;;;;;;5051278;28;20036;-66
2021/09/24 06:37:18;;;;;;;8.60;5.53;;;18.20;59.10;;;;;;5063415;28;20040;-65
2021/09/24 06:39:44;;;;;;;8.95;5.35;;;18.20;58.50;;;;;;5066851;28;20029;-66
2021/09/24 06:42:11;;;;;;;9.82;6.05;;;18.30;58.30;;;;;;5071879;28;20074;-65
2021/09/24 06:44:36;;;;;;;11.63;6.10;;;18.30;58.20;;;;;;5072747;28;20059;-65
2021/09/24 06:47:03;;;;;;;8.05;5.72;;;18.40;58.70;;;;;;5074336;28;20470;-66
2021/09/24 06:49:29;;;;;;;7.38;5.20;;;18.40;58.00;;;;;;5074052;28;20033;-65
2021/09/24 06:51:57;;;;;;;9.25;5.80;;;18.40;58.00;;;;;;5074894;28;20024;-65
2021/09/24 06:54:23;;;;;;;6.75;5.00;;;18.50;57.80;;;;;;5074807;28;20474;-66
2021/09/24 06:56:49;;;;;;;11.77;5.75;;;18.50;57.90;;;;;;5074893;28;20029;-66
2021/09/24 06:59:15;;;;;;;6.00;4.72;;;18.60;57.70;;;;;;5074890;28;20489;-66
2021/09/24 07:01:43;;;;;;;10.23;5.18;;;18.70;58.00;;;;;;5074579;28;20445;-66
2021/09/24 07:04:08;;;;;;;8.10;5.38;;;18.80;57.80;;;;;;5074842;28;20099;-66
2021/09/24 07:06:34;;;;;;;6.10;5.35;;;18.90;57.60;;;;;;5074619;28;20112;-66
2021/09/24 07:09:00;;;;;;;8.60;5.10;;;18.90;57.10;;;;;;5055405;28;20071;-66
2021/09/24 07:11:27;;;;;;;8.18;5.25;;;19.00;57.10;;;;;;5054468;28;20466;-66
2021/09/24 07:13:53;;;;;;;6.07;4.80;;;19.00;57.10;;;;;;5054330;28;20437;-66
2021/09/24 07:16:19;;;;;;;6.28;4.70;;;19.10;57.20;;;;;;5054325;28;20581;-66
2021/09/24 07:18:45;;;;;;;8.13;5.22;;;19.10;56.90;;;;;;5054387;28;20108;-66
2021/09/24 07:21:11;;;;;;;8.75;5.43;;;19.20;56.80;;;;;;5054541;28;20021;-66
2021/09/24 07:23:37;;;;;;;6.60;5.30;;;19.20;56.70;;;;;;5054360;28;20040;-66
2021/09/24 07:26:04;;;;;;;14.90;5.65;;;19.30;56.70;;;;;;5054098;28;20025;-66
2021/09/24 07:28:30;;;;;;;7.93;5.35;;;19.40;56.40;;;;;;5054076;28;20036;-66
2021/09/24 07:30:56;;;;;;;8.55;4.90;;;19.40;56.50;;;;;;5053903;28;20516;-66
2021/09/24 07:33:22;;;;;;;7.10;4.97;;;19.50;56.20;;;;;;5052763;28;20064;-66
2021/09/24 07:35:48;;;;;;;11.77;5.45;;;19.50;56.50;;;;;;5053940;28;20049;-66
2021/09/24 07:38:16;;;;;;;7.25;5.32;;;19.70;56.30;;;;;;5053868;28;20017;-66
2021/09/24 07:40:42;;;;;;;8.88;5.63;;;19.80;56.40;;;;;;5053738;28;20020;-66
2021/09/24 07:43:07;;;;;;;8.27;5.50;;;19.80;55.70;;;;;;5053923;28;20483;-66
2021/09/24 07:45:33;;;;;;;8.50;5.15;;;19.90;55.70;;;;;;5053786;28;20025;-66
2021/09/24 07:47:59;;;;;;;11.60;5.82;;;20.00;55.80;;;;;;5053821;28;20035;-67
2021/09/24 07:50:25;;;;;;;9.85;5.80;;;20.10;55.50;;;;;;5052311;28;20033;-66
2021/09/24 07:52:50;;;;;;;8.50;5.15;;;20.20;55.10;;;;;;5053011;28;20017;-66
2021/09/24 07:55:16;;;;;;;8.80;5.63;;;20.40;55.00;;;;;;5053487;28;20025;-66
2021/09/24 07:57:42;;;;;;;7.47;5.60;;;20.50;54.50;;;;;;5053580;28;20096;-66
2021/09/24 08:00:08;;;;;;;9.85;5.22;;;20.60;54.50;;;;;;5053324;28;20394;-67
2021/09/24 08:02:34;;;;;;;11.00;5.90;;;20.60;53.80;;;;;;5053264;28;20053;-66
2021/09/24 08:05:00;;;;;;;8.10;5.57;;;20.60;53.50;;;;;;5053439;28;20047;-67
2021/09/24 08:07:26;;;;;;;8.70;5.90;;;20.70;53.80;;;;;;5053260;28;20036;-66
2021/09/24 08:09:52;;;;;;;8.20;4.93;;;20.70;53.30;;;;;;5062940;28;20042;-66
2021/09/24 08:12:17;;;;;;;6.60;5.07;;;20.80;53.20;;;;;;5073096;28;20020;-66
2021/09/24 08:14:43;;;;;;;5.75;4.30;;;20.70;53.20;;;;;;5071873;28;20497;-66
2021/09/24 08:17:09;;;;;;;6.05;4.55;;;20.80;53.80;;;;;;5073104;28;20085;-66
2021/09/24 08:19:37;;;;;;;7.90;5.30;;;20.90;53.40;;;;;;5073092;28;20039;-66
2021/09/24 08:22:04;;;;;;;6.88;4.47;;;20.90;53.30;;;;;;5073143;28;20021;-67
2021/09/24 08:24:30;;;;;;;5.78;4.70;;;21.00;53.60;;;;;;5057956;28;20032;-66
2021/09/24 08:26:56;;;;;;;7.03;4.70;;;21.10;53.30;;;;;;5052976;28;20074;-66
2021/09/24 08:29:22;;;;;;;9.23;4.85;;;21.20;53.10;;;;;;5052829;28;20033;-66
2021/09/24 08:31:48;;;;;;;7.60;4.82;;;21.30;52.40;;;;;;5053070;28;20021;-66
2021/09/24 08:34:14;;;;;;;11.15;5.38;;;21.40;52.70;;;;;;5052937;28;20025;-66
2021/09/24 08:36:41;;;;;;;11.90;5.00;;;21.50;52.10;;;;;;5052916;28;20049;-66
2021/09/24 08:39:07;;;;;;;10.48;5.03;;;21.50;51.90;;;;;;5052765;28;20431;-66
2021/09/24 08:41:33;;;;;;;8.48;5.30;;;21.50;52.20;;;;;;5052731;28;20028;-67
2021/09/24 08:43:59;;;;;;;7.78;4.50;;;21.70;52.00;;;;;;5052661;28;20097;-66
2021/09/24 08:46:26;;;;;;;7.38;5.18;;;21.70;52.00;;;;;;5052699;28;20021;-66
2021/09/24 08:48:52;;;;;;;8.50;4.50;;;21.80;51.20;;;;;;5051180;28;20478;-66
2021/09/24 08:51:18;;;;;;;8.52;5.40;;;21.90;51.60;;;;;;5052480;28;20025;-66
2021/09/24 08:53:45;;;;;;;7.53;4.80;;;21.90;50.90;;;;;;5052444;28;20078;-66
2021/09/24 08:56:12;;;;;;;7.30;4.60;;;22.00;50.80;;;;;;5052417;28;20032;-67
2021/09/24 08:58:39;;;;;;;6.25;4.68;;;22.10;51.00;;;;;;5052717;28;20021;-66
2021/09/24 09:01:05;;;;;;;6.97;4.88;;;22.10;50.60;;;;;;5052306;28;20397;-66
2021/09/24 09:03:40;;;;;;;8.98;4.85;;;22.20;50.30;;;;;;5052459;28;20071;-66
2021/09/24 09:06:06;;;;;;;6.30;4.93;;;22.20;50.40;;;;;;5052190;28;20025;-67
2021/09/24 09:08:32;;;;;;;11.30;5.38;;;22.30;50.30;;;;;;5062674;28;20025;-66
2021/09/24 09:11:05;;;;;;;7.40;5.13;;;22.30;50.50;;;;;;5052057;28;20028;-67
2021/09/24 09:13:39;;;;;;;8.88;4.88;;;22.30;49.80;;;;;;5071788;28;20020;-66
2021/09/24 09:16:11;;;;;;;11.07;6.25;;;22.30;50.00;;;;;;5072291;28;20024;-66
2021/09/24 09:18:40;;;;;;;11.57;5.03;;;22.30;49.60;;;;;;5072041;28;20036;-66
2021/09/24 09:21:10;;;;;;;11.45;4.85;;;22.30;50.00;;;;;;5072151;28;20028;-66
2021/09/24 09:23:39;;;;;;;7.03;5.20;;;22.40;50.40;;;;;;5053096;28;20467;-67
2021/09/24 09:26:10;;;;;;;7.07;4.97;;;22.40;50.00;;;;;;5051920;28;20037;-67
2021/09/24 09:28:48;;;;;;;7.20;5.20;;;22.40;50.00;;;;;;5052078;28;20470;-67
2021/09/24 09:31:16;;;;;;;9.27;5.68;;;22.50;49.80;;;;;;5052080;28;20025;-67
2021/09/24 09:33:42;;;;;;;8.20;5.28;;;22.50;48.80;;;;;;5051886;28;20518;-67
2021/09/24 09:36:08;;;;;;;9.35;5.20;;;22.50;49.00;;;;;;5051895;28;20103;-66
2021/09/24 09:38:42;;;;;;;7.28;4.95;;;22.50;49.10;;;;;;5051654;28;20104;-67
2021/09/24 09:41:12;;;;;;;8.07;6.18;;;22.50;49.10;;;;;;5051599;28;20043;-66
2021/09/24 09:43:43;;;;;;;8.20;5.47;;;22.50;48.90;;;;;;5050491;28;20501;-67
2021/09/24 09:46:34;;;;;;;7.85;4.95;;;22.60;49.20;;;;;;5051505;28;20043;-67
2021/09/24 09:49:07;;;;;;;7.43;5.38;;;22.70;49.50;;;;;;5051767;28;20025;-67
2021/09/24 09:51:34;;;;;;;6.35;4.50;;;22.80;48.70;;;;;;5051807;28;20143;-67
2021/09/24 09:54:00;;;;;;;5.95;4.30;;;22.90;48.60;;;;;;5051796;28;20099;-67
2021/09/24 09:56:49;;;;;;;6.80;4.85;;;22.90;48.60;;;;;;5051692;28;20021;-68
2021/09/24 09:59:28;;;;;;;6.53;5.03;;;23.00;48.10;;;;;;5051605;28;20060;-67
2021/09/24 10:02:20;;;;;;;12.07;5.72;;;23.10;47.80;;;;;;5051794;28;20110;-67
2021/09/24 10:04:51;;;;;;;7.78;5.00;;;23.10;47.60;;;;;;5051577;28;20078;-68
2021/09/24 10:07:20;;;;;;;14.48;6.13;;;23.10;47.60;;;;;;5051496;28;20048;-67
2021/09/24 10:09:47;;;;;;;12.30;6.35;;;23.10;46.90;;;;;;5051784;28;20359;-66
2021/09/24 10:12:16;;;;;;;8.15;5.82;;;23.10;47.30;;;;;;5051861;28;20017;-67
2021/09/24 10:14:42;;;;;;;7.82;5.18;;;23.10;47.20;;;;;;5055753;28;20099;-66
2021/09/24 10:17:07;;;;;;;8.80;5.72;;;23.10;47.60;;;;;;5073496;28;20463;-66
2021/09/24 10:19:33;;;;;;;8.20;4.70;;;23.00;47.50;;;;;;5075346;28;20112;-66
2021/09/24 10:21:59;;;;;;;9.75;4.90;;;23.00;47.50;;;;;;5057805;28;20087;-66
2021/09/24 10:24:25;;;;;;;9.30;6.07;;;22.90;47.50;;;;;;5055680;28;20036;-66
2021/09/24 10:27:00;;;;;;;8.65;5.82;;;22.90;47.50;;;;;;5055332;28;20108;-65
2021/09/24 10:29:30;;;;;;;12.80;5.40;;;22.80;47.50;;;;;;5054998;28;20025;-66
2021/09/24 10:32:10;;;;;;;7.72;5.35;;;22.70;47.70;;;;;;5055084;28;20107;-67
2021/09/24 10:34:53;;;;;;;6.65;4.65;;;22.70;48.00;;;;;;5055079;28;20553;-67
2021/09/24 10:37:20;;;;;;;10.65;5.50;;;22.70;48.40;;;;;;5054880;28;20484;-68
2021/09/24 10:39:48;;;;;;;15.48;5.82;;;22.70;48.10;;;;;;5054746;28;20104;-67
2021/09/24 10:42:19;;;;;;;10.18;5.30;;;22.70;48.40;;;;;;5054773;28;20025;-68
2021/09/24 10:45:05;;;;;;;8.25;5.28;;;22.80;48.60;;;;;;5054375;28;20029;-68
2021/09/24 10:47:46;;;;;;;6.55;4.90;;;22.80;48.40;;;;;;5054981;28;20033;-67
2021/09/24 10:50:47;;;;;;;7.80;5.25;;;22.90;48.30;;;;;;5054651;28;20108;-67
2021/09/24 10:53:17;;;;;;;9.02;5.57;;;23.00;48.30;;;;;;5052791;28;20021;-67
2021/09/24 10:55:52;;;;;;;6.68;5.22;;;23.10;47.70;;;;;;5052245;28;20037;-67
2021/09/24 10:58:26;;;;;;;9.73;5.50;;;23.30;47.50;;;;;;5052500;28;20199;-67
2021/09/24 11:01:01;;;;;;;8.05;5.00;;;23.30;47.40;;;;;;5052407;28;20037;-67
2021/09/24 11:03:29;;;;;;;9.35;4.70;;;23.40;46.90;;;;;;5052284;28;20446;-66
2021/09/24 11:05:57;;;;;;;11.75;5.63;;;23.40;46.70;;;;;;5052319;28;20117;-67
2021/09/24 11:08:29;;;;;;;9.38;5.00;;;23.50;46.60;;;;;;5052229;28;20116;-67
2021/09/24 11:11:11;;;;;;;9.73;5.20;;;23.50;46.80;;;;;;5052157;28;20056;-66
2021/09/24 11:13:43;;;;;;;7.72;4.97;;;23.50;46.70;;;;;;5052083;28;20063;-66
2021/09/24 11:16:12;;;;;;;9.88;5.43;;;23.60;46.50;;;;;;5052244;28;20021;-67
2021/09/24 11:19:00;;;;;;;7.93;5.10;;;23.60;46.20;;;;;;5070725;28;20029;-67
2021/09/24 11:21:32;;;;;;;5.68;4.78;;;23.60;47.10;;;;;;5072117;28;20043;-67
2021/09/24 11:24:00;;;;;;;7.05;3.65;;;23.60;46.10;;;;;;5072072;28;20432;-67
2021/09/24 11:26:32;;;;;;;5.43;4.47;;;23.60;46.40;;;;;;5072376;28;20108;-67
2021/09/24 11:29:03;;;;;;;5.13;4.18;;;23.70;46.30;;;;;;5072720;28;20027;-67
2021/09/24 11:32:00;;;;;;;7.65;4.03;;;23.70;46.30;;;;;;5073846;28;20115;-67
2021/09/24 11:34:43;;;;;;;6.50;4.43;;;23.70;46.30;;;;;;5073712;28;20020;-66
2021/09/24 11:37:16;;;;;;;8.95;4.60;;;23.80;45.70;;;;;;5072596;28;20020;-67
2021/09/24 11:39:43;;;;;;;7.23;4.43;;;23.80;45.80;;;;;;5073833;28;20572;-66
2021/09/24 11:42:15;;;;;;;5.63;3.88;;;23.80;45.70;;;;;;5073807;28;20020;-67
2021/09/24 11:44:46;;;;;;;9.38;4.78;;;23.80;45.70;;;;;;5073798;28;20028;-67
2021/09/24 11:47:22;;;;;;;9.18;3.47;;;23.80;45.20;;;;;;5073451;28;20047;-67
2021/09/24 11:50:08;;;;;;;7.82;3.78;;;23.80;45.50;;;;;;5073438;28;20021;-67
2021/09/24 11:52:42;;;;;;;4.55;3.70;;;23.80;45.50;;;;;;5073805;28;20024;-67
2021/09/24 11:55:09;;;;;;;;;;;23.80;45.10;;;;;;5074257;28;20040;-67
2021/09/24 11:57:34;;;;;;;6.05;3.78;;;23.80;46.00;;;;;;5073318;28;19905;-67
2021/09/24 12:00:00;;;;;;;9.13;4.00;;;23.80;45.00;;;;;;5073335;28;20024;-67
2021/09/24 12:02:26;;;;;;;8.38;3.28;;;23.70;45.20;;;;;;5073157;28;20048;-67
2021/09/24 12:04:59;;;;;;;4.85;2.90;;;23.80;45.40;;;;;;5073391;28;20024;-67
2021/09/24 12:07:25;;;;;;;6.20;3.53;;;23.80;45.60;;;;;;5067428;28;20025;-67
2021/09/24 12:10:00;;;;;;;4.85;3.60;;;23.80;45.80;;;;;;5053303;28;20116;-67
2021/09/24 12:12:27;;;;;;;5.20;3.17;;;23.80;45.60;;;;;;5053390;28;20025;-66
2021/09/24 12:15:01;;;;;;;7.30;3.42;;;23.90;45.50;;;;;;5053176;28;20486;-67
2021/09/24 12:17:29;;;;;;;6.93;3.65;;;23.90;45.50;;;;;;5053137;28;20021;-67
2021/09/24 12:19:57;;;;;;;6.03;3.47;;;23.90;45.10;;;;;;5055978;28;20021;-67
2021/09/24 12:22:23;;;;;;;4.97;3.42;;;24.00;45.40;;;;;;5072984;28;20424;-67
2021/09/24 12:24:50;;;;;;;4.55;2.83;;;24.00;45.00;;;;;;5073002;28;20029;-66
2021/09/24 12:27:31;;;;;;;4.47;3.45;;;24.00;44.50;;;;;;5072885;28;20025;-66
2021/09/24 12:30:15;;;;;;;4.15;2.95;;;24.00;44.30;;;;;;5073087;28;20673;-66
2021/09/24 12:32:41;;;;;;;5.38;3.05;;;24.00;44.60;;;;;;5072920;28;20523;-67
2021/09/24 12:35:07;;;;;;;4.30;2.83;;;24.10;44.20;;;;;;5073144;28;20037;-66
2021/09/24 12:37:43;;;;;;;4.78;3.42;;;24.20;44.70;;;;;;5072749;28;20013;-66
2021/09/24 12:40:13;;;;;;;3.67;2.75;;;24.20;44.20;;;;;;5072364;28;20107;-66
2021/09/24 12:42:42;;;;;;;4.90;2.40;;;24.20;44.30;;;;;;5071474;28;20086;-67
2021/09/24 12:45:10;;;;;;;4.25;2.25;;;24.30;44.60;;;;;;5056344;28;20081;-66
2021/09/24 12:47:38;;;;;;;4.40;2.35;;;24.30;44.30;;;;;;5052511;28;20395;-67
2021/09/24 12:50:07;;;;;;;3.88;2.15;;;24.40;43.80;;;;;;5055823;28;20032;-66